Time;durP1;ratioP1;P1;durP2;ratioP2;P2;SDS_P1;SDS_P2;PMS_P1;PMS_P2;Temp;Humidity;BMP_temperature;BMP_pressure;BME280_temperature;BME280_humidity;BME280_pressure;Samples;Min_cycle;Max_cycle;Signal;HPM_P1;HPM_P2
2023/10/24 00:00:43;;;;;;;18.08;11.45;;;;;;;;;;5029377;28;20454;-72
2023/10/24 00:03:10;;;;;;;15.45;10.50;;;;;;;;;;5029142;28;20048;-72
2023/10/24 00:05:36;;;;;;;17.77;10.30;;;;;;;;;;5040479;28;20418;-72
2023/10/24 00:08:03;;;;;;;18.13;10.68;;;;;;;;;;5030575;28;20045;-72
2023/10/24 00:10:30;;;;;;;15.70;10.52;;;;;;;;;;5032066;28;20132;-72
2023/10/24 00:12:56;;;;;;;16.25;11.38;;;;;;;;;;5033024;28;20053;-72
2023/10/24 00:15:23;;;;;;;20.33;11.02;;;;;;;;;;5042724;28;20134;-72
2023/10/24 00:17:49;;;;;;;18.75;12.10;;;;;;;;;;5041959;28;20044;-71
2023/10/24 00:20:16;;;;;;;14.98;10.32;;;;;;;;;;5042311;28;20068;-73
2023/10/24 00:22:42;;;;;;;16.98;10.35;;;;;;;;;;5028185;28;20072;-72
2023/10/24 00:25:09;;;;;;;16.35;10.88;;;;;;;;;;5040896;28;20040;-72
2023/10/24 00:27:35;;;;;;;16.60;10.73;;;;;;;;;;5037910;28;20045;-72
2023/10/24 00:30:02;;;;;;;13.98;9.60;;;;;;;;;;5044145;28;20087;-72
2023/10/24 00:32:29;;;;;;;15.27;10.60;;;;;;;;;;5045467;28;20563;-72
2023/10/24 00:34:55;;;;;;;15.57;9.95;;;;;;;;;;5044370;28;20045;-72
2023/10/24 00:37:22;;;;;;;17.38;11.63;;;;;;;;;;5034139;28;20549;-72
2023/10/24 00:39:48;;;;;;;15.88;10.52;;;;;;;;;;5043563;28;20053;-72
2023/10/24 00:42:15;;;;;;;16.05;10.50;;;;;;;;;;5042265;28;20132;-72
2023/10/24 00:44:41;;;;;;;16.67;10.45;;;;;;;;;;5045044;28;20073;-72
2023/10/24 00:47:08;;;;;;;15.73;10.68;;;;;;;;;;5046817;28;20102;-72
2023/10/24 00:49:34;;;;;;;14.48;10.40;;;;;;;;;;5038481;28;20045;-72
2023/10/24 00:52:01;;;;;;;14.05;10.70;;;;;;;;;;5043241;28;20462;-72
2023/10/24 00:54:28;;;;;;;28.58;11.65;;;;;;;;;;5030391;28;20446;-72
2023/10/24 00:56:55;;;;;;;18.23;10.70;;;;;;;;;;5035928;28;20115;-72
2023/10/24 00:59:23;;;;;;;16.23;10.85;;;;;;;;;;5044190;28;20072;-72
2023/10/24 01:01:50;;;;;;;18.30;10.95;;;;;;;;;;5044133;28;20107;-72
2023/10/24 01:04:18;;;;;;;18.15;10.32;;;;;;;;;;5033276;28;20049;-72
2023/10/24 01:06:45;;;;;;;20.88;10.52;;;;;;;;;;5031746;28;20057;-71
2023/10/24 01:09:11;;;;;;;16.42;10.15;;;;;;;;;;5039008;28;20045;-72
2023/10/24 01:11:37;;;;;;;17.25;10.88;;;;;;;;;;5030901;28;20468;-73
2023/10/24 01:14:04;;;;;;;16.63;10.43;;;;;;;;;;5046803;28;20071;-72
2023/10/24 01:16:34;;;;;;;18.08;10.32;;;;;;;;;;5035512;28;20049;-72
2023/10/24 01:19:00;;;;;;;16.52;10.10;;;;;;;;;;5039580;28;20517;-72
2023/10/24 01:21:27;;;;;;;22.13;11.43;;;;;;;;;;5032823;28;20100;-71
2023/10/24 01:23:54;;;;;;;19.83;10.23;;;;;;;;;;5046304;28;20521;-72
2023/10/24 01:26:21;;;;;;;17.83;10.48;;;;;;;;;;5037802;28;20044;-72
2023/10/24 01:28:48;;;;;;;16.88;9.80;;;;;;;;;;5045934;28;20068;-72
2023/10/24 01:31:14;;;;;;;19.05;11.07;;;;;;;;;;5042270;28;20148;-72
2023/10/24 01:33:41;;;;;;;22.15;10.65;;;;;;;;;;5046193;28;20075;-71
2023/10/24 01:36:07;;;;;;;17.27;10.68;;;;;;;;;;5039119;28;20060;-72
2023/10/24 01:38:33;;;;;;;15.60;10.55;;;;;;;;;;5045992;28;20680;-72
2023/10/24 01:41:00;;;;;;;15.50;10.95;;;;;;;;;;5036728;28;20055;-72
2023/10/24 01:43:27;;;;;;;17.75;10.75;;;;;;;;;;5042792;28;20673;-72
2023/10/24 01:45:54;;;;;;;19.02;11.25;;;;;;;;;;5026449;28;20409;-72
2023/10/24 01:48:20;;;;;;;23.55;11.02;;;;;;;;;;5035542;28;20063;-72
2023/10/24 01:50:47;;;;;;;26.42;11.20;;;;;;;;;;5036430;28;20127;-72
2023/10/24 01:53:13;;;;;;;16.65;10.30;;;;;;;;;;5045086;28;20497;-72
2023/10/24 01:55:40;;;;;;;25.35;11.80;;;;;;;;;;5037558;28;20133;-72
2023/10/24 01:58:06;;;;;;;17.25;11.75;;;;;;;;;;5030911;28;20063;-72
2023/10/24 02:00:33;;;;;;;14.73;9.70;;;;;;;;;;5039907;28;20129;-72
2023/10/24 02:02:59;;;;;;;19.63;11.88;;;;;;;;;;5032751;28;20461;-72
2023/10/24 02:05:26;;;;;;;23.88;11.25;;;;;;;;;;5027582;28;20048;-72
2023/10/24 02:07:53;;;;;;;18.52;10.13;;;;;;;;;;5044795;28;20057;-72
2023/10/24 02:10:19;;;;;;;18.70;10.77;;;;;;;;;;5049419;28;20095;-72
2023/10/24 02:12:46;;;;;;;17.13;11.07;;;;;;;;;;5038481;28;20060;-72
2023/10/24 02:15:12;;;;;;;22.20;10.85;;;;;;;;;;5045274;28;20080;-73
2023/10/24 02:17:41;;;;;;;19.75;11.23;;;;;;;;;;5044911;28;20041;-72
2023/10/24 02:20:08;;;;;;;15.25;10.02;;;;;;;;;;5045936;28;20363;-72
2023/10/24 02:22:35;;;;;;;19.08;10.05;;;;;;;;;;5037306;28;20049;-72
2023/10/24 02:25:01;;;;;;;20.00;10.52;;;;;;;;;;5046499;28;20076;-72
2023/10/24 02:27:28;;;;;;;15.52;9.88;;;;;;;;;;5045582;28;20053;-72
2023/10/24 02:29:55;;;;;;;20.50;9.77;;;;;;;;;;5040749;28;20454;-72
2023/10/24 02:32:21;;;;;;;21.15;10.98;;;;;;;;;;5037225;28;20559;-73
2023/10/24 02:34:49;;;;;;;22.73;9.95;;;;;;;;;;5045980;28;20049;-72
2023/10/24 02:37:16;;;;;;;20.02;10.60;;;;;;;;;;5045264;28;20451;-72
2023/10/24 02:39:42;;;;;;;17.27;10.25;;;;;;;;;;5035141;28;20056;-72
2023/10/24 02:42:09;;;;;;;18.70;9.88;;;;;;;;;;5028970;28;20521;-72
2023/10/24 02:44:35;;;;;;;18.77;10.57;;;;;;;;;;5041648;28;20490;-72
2023/10/24 02:47:01;;;;;;;19.33;10.70;;;;;;;;;;5041235;28;20490;-72
2023/10/24 02:49:30;;;;;;;22.35;11.32;;;;;;;;;;5049328;28;20397;-72
2023/10/24 02:51:57;;;;;;;13.77;9.18;;;;;;;;;;5031986;28;20041;-72
2023/10/24 02:54:23;;;;;;;18.90;10.75;;;;;;;;;;5041802;28;20057;-72
2023/10/24 02:56:50;;;;;;;15.07;9.52;;;;;;;;;;5038926;28;20045;-72
2023/10/24 02:59:17;;;;;;;14.73;9.50;;;;;;;;;;5048407;28;20099;-72
2023/10/24 03:01:43;;;;;;;19.00;11.10;;;;;;;;;;5040650;28;20081;-72
2023/10/24 03:04:10;;;;;;;21.90;11.57;;;;;;;;;;5042201;28;20580;-72
2023/10/24 03:06:36;;;;;;;14.55;9.57;;;;;;;;;;5037669;28;20052;-72
2023/10/24 03:09:03;;;;;;;16.63;10.13;;;;;;;;;;5048640;28;20513;-72
2023/10/24 03:11:29;;;;;;;16.63;10.27;;;;;;;;;;5041188;28;20124;-72
2023/10/24 03:13:56;;;;;;;17.77;10.55;;;;;;;;;;5048238;28;20513;-72
2023/10/24 03:16:22;;;;;;;14.85;10.15;;;;;;;;;;5032584;28;20488;-71
2023/10/24 03:18:49;;;;;;;25.83;11.65;;;;;;;;;;5043383;28;20045;-71
2023/10/24 03:21:15;;;;;;;17.13;11.35;;;;;;;;;;5037855;28;20041;-72
2023/10/24 03:23:44;;;;;;;20.75;10.93;;;;;;;;;;5041314;28;20077;-72
2023/10/24 03:26:10;;;;;;;17.50;10.43;;;;;;;;;;5032098;28;20083;-73
2023/10/24 03:28:37;;;;;;;17.83;10.60;;;;;;;;;;5044040;28;20136;-73
2023/10/24 03:31:04;;;;;;;17.83;10.45;;;;;;;;;;5038605;28;20113;-74
2023/10/24 03:33:31;;;;;;;21.10;10.93;;;;;;;;;;5030965;28;20056;-73
2023/10/24 03:35:58;;;;;;;18.10;10.77;;;;;;;;;;5038788;28;20099;-71
2023/10/24 03:38:25;;;;;;;16.70;10.45;;;;;;;;;;5039266;28;20052;-72
2023/10/24 03:40:52;;;;;;;18.45;10.48;;;;;;;;;;5038476;28;20069;-72
2023/10/24 03:43:19;;;;;;;25.95;10.85;;;;;;;;;;5042819;28;20081;-72
2023/10/24 03:45:45;;;;;;;20.02;10.68;;;;;;;;;;5040091;28;20045;-73
2023/10/24 03:48:12;;;;;;;18.92;10.90;;;;;;;;;;5035104;28;20599;-72
2023/10/24 03:50:39;;;;;;;16.13;10.38;;;;;;;;;;5039682;28;20049;-73
2023/10/24 03:53:06;;;;;;;24.73;14.13;;;;;;;;;;5042998;28;20131;-72
2023/10/24 03:55:33;;;;;;;21.00;11.27;;;;;;;;;;5043897;28;20088;-72
2023/10/24 03:58:00;;;;;;;30.30;12.88;;;;;;;;;;5047512;28;20576;-72
2023/10/24 04:00:41;;;;;;;17.20;11.80;;;;;;;;;;5025179;28;20073;-71
2023/10/24 04:03:08;;;;;;;18.42;11.77;;;;;;;;;;5034948;28;20057;-71
2023/10/24 04:05:34;;;;;;;27.02;12.98;;;;;;;;;;5034015;28;20487;-71
2023/10/24 04:08:02;;;;;;;27.30;13.13;;;;;;;;;;5027429;28;20238;-71
2023/10/24 04:10:29;;;;;;;34.40;12.90;;;;;;;;;;5035149;28;20461;-70
2023/10/24 04:12:55;;;;;;;25.35;12.88;;;;;;;;;;5045930;28;20448;-71
2023/10/24 04:15:23;;;;;;;22.17;12.52;;;;;;;;;;5031634;28;20049;-70
2023/10/24 04:17:49;;;;;;;29.10;14.48;;;;;;;;;;5037861;28;20132;-70
2023/10/24 04:20:16;;;;;;;29.88;13.05;;;;;;;;;;5038666;28;20041;-72
2023/10/24 04:22:42;;;;;;;24.65;13.35;;;;;;;;;;5044627;28;20120;-71
2023/10/24 04:25:09;;;;;;;25.23;13.80;;;;;;;;;;5030688;28;20490;-71
2023/10/24 04:27:36;;;;;;;19.35;12.73;;;;;;;;;;5034454;28;20530;-71
2023/10/24 04:30:02;;;;;;;23.75;13.80;;;;;;;;;;5039041;28;20136;-72
2023/10/24 04:32:29;;;;;;;28.55;13.52;;;;;;;;;;5043119;28;20401;-71
2023/10/24 04:34:55;;;;;;;27.67;14.20;;;;;;;;;;5045366;28;20045;-70
2023/10/24 04:37:22;;;;;;;29.30;16.08;;;;;;;;;;5031842;28;20107;-70
2023/10/24 04:39:48;;;;;;;25.73;14.75;;;;;;;;;;5041341;28;20056;-71
2023/10/24 04:42:14;;;;;;;26.00;15.35;;;;;;;;;;5040151;28;20047;-70
2023/10/24 04:44:41;;;;;;;30.33;15.20;;;;;;;;;;5047174;28;20432;-70
2023/10/24 04:47:08;;;;;;;27.80;15.23;;;;;;;;;;5037849;28;20049;-70
2023/10/24 04:49:37;;;;;;;26.55;14.38;;;;;;;;;;5046512;28;20132;-70
2023/10/24 04:52:04;;;;;;;28.98;14.85;;;;;;;;;;5026983;28;20042;-70
2023/10/24 04:54:31;;;;;;;28.13;14.60;;;;;;;;;;5026521;28;20076;-71
2023/10/24 04:56:59;;;;;;;25.88;14.43;;;;;;;;;;5044970;28;20049;-70
2023/10/24 04:59:26;;;;;;;25.63;15.43;;;;;;;;;;5031249;28;20045;-72
2023/10/24 05:01:53;;;;;;;30.05;14.45;;;;;;;;;;5031761;28;20095;-72
2023/10/24 05:04:20;;;;;;;28.02;14.88;;;;;;;;;;5032893;28;20053;-70
2023/10/24 05:06:46;;;;;;;31.45;15.68;;;;;;;;;;5032230;28;20049;-72
2023/10/24 05:09:16;;;;;;;23.70;14.77;;;;;;;;;;5038701;28;20135;-71
2023/10/24 05:11:42;;;;;;;23.67;13.40;;;;;;;;;;5034973;28;20139;-70
2023/10/24 05:14:09;;;;;;;31.33;13.93;;;;;;;;;;5038211;28;20037;-72
2023/10/24 05:16:35;;;;;;;20.85;14.15;;;;;;;;;;5038914;28;20143;-71
2023/10/24 05:19:02;;;;;;;28.23;14.68;;;;;;;;;;5034654;28;20498;-72
2023/10/24 05:21:28;;;;;;;23.60;13.65;;;;;;;;;;5037754;28;20080;-71
2023/10/24 05:23:55;;;;;;;28.48;15.63;;;;;;;;;;5041855;28;20103;-69
2023/10/24 05:26:21;;;;;;;29.80;15.30;;;;;;;;;;5042147;28;20088;-69
2023/10/24 05:28:48;;;;;;;28.98;15.35;;;;;;;;;;5044870;28;20141;-71
2023/10/24 05:31:15;;;;;;;27.60;15.65;;;;;;;;;;5037633;28;20049;-69
2023/10/24 05:33:44;;;;;;;25.75;14.40;;;;;;;;;;5037575;28;20501;-71
2023/10/24 05:36:10;;;;;;;29.92;15.13;;;;;;;;;;5034556;28;20073;-71
2023/10/24 05:38:37;;;;;;;31.30;15.63;;;;;;;;;;5043768;28;20045;-70
2023/10/24 05:41:03;;;;;;;30.50;15.00;;;;;;;;;;5041075;28;20729;-71
2023/10/24 05:43:29;;;;;;;24.92;14.02;;;;;;;;;;5046471;28;20057;-72
2023/10/24 05:45:56;;;;;;;33.28;14.75;;;;;;;;;;5034504;28;20536;-70
2023/10/24 05:48:23;;;;;;;25.42;14.15;;;;;;;;;;5044497;28;20056;-70
2023/10/24 05:50:49;;;;;;;34.83;15.27;;;;;;;;;;5038852;28;20112;-72
2023/10/24 05:53:15;;;;;;;29.15;15.65;;;;;;;;;;5045849;28;20506;-70
2023/10/24 05:55:42;;;;;;;39.00;15.07;;;;;;;;;;5035741;28;20119;-70
2023/10/24 05:58:08;;;;;;;28.75;17.30;;;;;;;;;;5059189;28;20040;-70
2023/10/24 06:00:35;;;;;;;22.63;15.13;;;;;;;;;;5034404;28;20662;-70
2023/10/24 06:03:01;;;;;;;22.63;14.80;;;;;;;;;;5044675;28;20045;-70
2023/10/24 06:05:28;;;;;;;30.58;14.18;;;;;;;;;;5034372;28;20394;-70
2023/10/24 06:07:55;;;;;;;26.95;14.38;;;;;;;;;;5031398;28;20554;-70
2023/10/24 06:10:21;;;;;;;32.15;13.68;;;;;;;;;;5040345;28;20044;-69
2023/10/24 06:12:48;;;;;;;30.40;13.70;;;;;;;;;;5030598;28;20047;-72
2023/10/24 06:15:14;;;;;;;25.30;13.85;;;;;;;;;;5036129;28;20133;-72
2023/10/24 06:17:41;;;;;;;25.77;13.45;;;;;;;;;;5039159;28;20704;-70
2023/10/24 06:20:07;;;;;;;25.70;13.15;;;;;;;;;;5042274;28;20037;-71
2023/10/24 06:22:34;;;;;;;16.60;11.85;;;;;;;;;;5026871;28;20088;-72
2023/10/24 06:25:00;;;;;;;24.05;13.40;;;;;;;;;;5034756;28;20172;-71
2023/10/24 06:27:27;;;;;;;21.98;12.13;;;;;;;;;;5036191;28;20493;-72
2023/10/24 06:29:53;;;;;;;25.40;14.10;;;;;;;;;;5044214;28;20364;-69
2023/10/24 06:32:20;;;;;;;19.45;12.50;;;;;;;;;;5036922;28;20150;-71
2023/10/24 06:34:46;;;;;;;27.95;14.35;;;;;;;;;;5044821;28;20049;-71
2023/10/24 06:37:13;;;;;;;23.42;12.88;;;;;;;;;;5030656;28;20603;-72
2023/10/24 06:39:39;;;;;;;25.95;13.85;;;;;;;;;;5044975;28;20083;-70
2023/10/24 06:42:06;;;;;;;21.35;13.00;;;;;;;;;;5037184;28;20122;-72
2023/10/24 06:44:33;;;;;;;24.48;13.63;;;;;;;;;;5057562;28;20137;-71
2023/10/24 06:46:59;;;;;;;23.40;13.55;;;;;;;;;;5029956;28;20298;-70
2023/10/24 06:49:26;;;;;;;25.45;12.85;;;;;;;;;;5039493;28;20058;-70
2023/10/24 06:51:52;;;;;;;23.92;12.63;;;;;;;;;;5038805;28;20041;-70
2023/10/24 06:54:21;;;;;;;28.50;14.02;;;;;;;;;;5039005;28;20046;-70
2023/10/24 06:56:50;;;;;;;27.45;13.02;;;;;;;;;;5033273;28;20457;-71
2023/10/24 06:59:17;;;;;;;24.77;12.43;;;;;;;;;;5044015;28;20044;-71
2023/10/24 07:01:44;;;;;;;22.58;12.45;;;;;;;;;;5044347;28;20406;-70
2023/10/24 07:04:11;;;;;;;22.70;13.55;;;;;;;;;;5046062;28;20037;-70
2023/10/24 07:06:37;;;;;;;25.10;11.80;;;;;;;;;;5036909;28;20120;-72
2023/10/24 07:09:04;;;;;;;24.13;12.43;;;;;;;;;;5037839;28;20056;-70
2023/10/24 07:11:31;;;;;;;34.25;13.90;;;;;;;;;;5043254;28;20060;-70
2023/10/24 07:13:58;;;;;;;25.45;13.02;;;;;;;;;;5045989;28;20080;-70
2023/10/24 07:16:25;;;;;;;21.60;12.70;;;;;;;;;;5034895;28;20053;-71
2023/10/24 07:18:51;;;;;;;20.08;13.90;;;;;;;;;;5038537;28;20132;-70
2023/10/24 07:21:19;;;;;;;22.85;11.93;;;;;;;;;;5050159;28;20045;-70
2023/10/24 07:23:45;;;;;;;21.65;11.90;;;;;;;;;;5046185;28;20048;-71
2023/10/24 07:26:12;;;;;;;21.40;13.15;;;;;;;;;;5037428;28;20119;-70
2023/10/24 07:28:38;;;;;;;22.45;11.55;;;;;;;;;;5042869;28;20057;-71
2023/10/24 07:31:05;;;;;;;22.23;11.98;;;;;;;;;;5034530;28;20217;-72
2023/10/24 07:33:32;;;;;;;21.10;12.82;;;;;;;;;;5046089;28;20037;-72
2023/10/24 07:36:05;;;;;;;25.05;12.88;;;;;;;;;;5034469;28;20079;-72
2023/10/24 07:38:32;;;;;;;28.17;12.13;;;;;;;;;;5043236;28;20048;-72
2023/10/24 07:40:59;;;;;;;20.27;11.75;;;;;;;;;;5034067;28;20095;-70
2023/10/24 07:43:26;;;;;;;22.73;13.00;;;;;;;;;;5043360;28;20137;-72
2023/10/24 07:45:56;;;;;;;25.40;12.13;;;;;;;;;;5045852;28;20041;-71
2023/10/24 07:48:23;;;;;;;22.50;12.50;;;;;;;;;;5037787;28;20087;-74
2023/10/24 07:50:51;;;;;;;26.92;12.77;;;;;;;;;;5035104;28;20674;-71
2023/10/24 07:53:18;;;;;;;18.40;11.48;;;;;;;;;;5038485;28;20131;-71
2023/10/24 07:55:44;;;;;;;22.40;12.60;;;;;;;;;;5039532;28;20337;-70
2023/10/24 07:58:11;;;;;;;22.58;12.80;;;;;;;;;;5040828;28;20044;-73
2023/10/24 08:00:37;;;;;;;29.85;12.35;;;;;;;;;;5056034;28;20272;-72
2023/10/24 08:03:04;;;;;;;22.42;12.95;;;;;;;;;;5027489;28;20057;-72
2023/10/24 08:05:31;;;;;;;21.77;12.32;;;;;;;;;;5028991;28;20049;-70
2023/10/24 08:07:58;;;;;;;20.23;12.43;;;;;;;;;;5040714;28;20052;-70
2023/10/24 08:10:25;;;;;;;25.42;11.52;;;;;;;;;;5041361;28;20059;-70
2023/10/24 08:12:51;;;;;;;27.75;13.45;;;;;;;;;;5047663;28;20102;-70
2023/10/24 08:15:17;;;;;;;22.80;12.85;;;;;;;;;;5041757;28;20061;-71
2023/10/24 08:17:44;;;;;;;29.35;12.13;;;;;;;;;;5040946;28;20203;-71
2023/10/24 08:20:11;;;;;;;23.90;11.93;;;;;;;;;;5035843;28;20041;-71
2023/10/24 08:22:37;;;;;;;24.05;12.20;;;;;;;;;;5045716;28;20045;-70
2023/10/24 08:25:07;;;;;;;20.52;11.52;;;;;;;;;;5034941;28;20409;-72
2023/10/24 08:27:35;;;;;;;25.42;13.63;;;;;;;;;;5041302;28;20485;-69
2023/10/24 08:30:03;;;;;;;19.42;11.75;;;;;;;;;;5030563;28;20060;-72
2023/10/24 08:32:29;;;;;;;22.15;12.48;;;;;;;;;;5033565;28;20114;-72
2023/10/24 08:34:57;;;;;;;16.63;10.50;;;;;;;;;;5036217;28;20048;-70
2023/10/24 08:37:28;;;;;;;19.35;11.10;;;;;;;;;;5039728;28;20045;-72
2023/10/24 08:39:58;;;;;;;19.25;11.43;;;;;;;;;;5044569;28;20037;-72
2023/10/24 08:42:25;;;;;;;18.02;10.65;;;;;;;;;;5029253;28;20132;-72
2023/10/24 08:44:53;;;;;;;20.98;11.45;;;;;;;;;;5037610;28;20057;-73
2023/10/24 08:47:19;;;;;;;22.95;11.98;;;;;;;;;;5034458;28;20077;-70
2023/10/24 08:49:47;;;;;;;19.38;11.68;;;;;;;;;;5061145;28;20482;-70
2023/10/24 08:52:13;;;;;;;21.35;11.63;;;;;;;;;;5034900;28;20600;-70
2023/10/24 08:54:57;;;;;;;20.42;10.60;;;;;;;;;;5044208;28;20616;-70
2023/10/24 08:57:26;;;;;;;15.82;10.93;;;;;;;;;;5031551;28;20490;-71
2023/10/24 08:59:54;;;;;;;17.42;10.68;;;;;;;;;;5045068;28;20080;-70
2023/10/24 09:02:21;;;;;;;21.67;11.98;;;;;;;;;;5032963;28;20453;-71
2023/10/24 09:04:51;;;;;;;19.23;10.23;;;;;;;;;;5040118;28;20045;-71
2023/10/24 09:07:17;;;;;;;22.45;11.73;;;;;;;;;;5037557;28;20306;-72
2023/10/24 09:09:43;;;;;;;19.80;10.23;;;;;;;;;;5040671;28;20068;-71
2023/10/24 09:12:14;;;;;;;19.77;11.25;;;;;;;;;;5038869;28;20098;-71
2023/10/24 09:14:47;;;;;;;21.85;11.05;;;;;;;;;;5037534;28;20106;-70
2023/10/24 09:17:19;;;;;;;20.77;10.48;;;;;;;;;;5026453;28;20049;-70
2023/10/24 09:19:46;;;;;;;22.77;10.90;;;;;;;;;;5036674;28;20098;-71
2023/10/24 09:22:16;;;;;;;21.95;10.57;;;;;;;;;;5040802;28;20052;-71
2023/10/24 09:24:49;;;;;;;15.32;10.20;;;;;;;;;;5032303;28;20132;-72
2023/10/24 09:27:17;;;;;;;18.58;9.88;;;;;;;;;;5033423;28;20057;-72
2023/10/24 09:29:43;;;;;;;20.48;9.95;;;;;;;;;;5039164;28;20385;-70
2023/10/24 09:32:16;;;;;;;15.73;9.90;;;;;;;;;;5042498;28;20137;-70
2023/10/24 09:34:44;;;;;;;20.17;9.77;;;;;;;;;;5046258;28;20124;-71
2023/10/24 09:37:13;;;;;;;21.35;10.20;;;;;;;;;;5035499;28;20140;-72
2023/10/24 09:39:53;;;;;;;18.58;11.18;;;;;;;;;;5040279;28;20447;-71
2023/10/24 09:42:24;;;;;;;14.52;9.85;;;;;;;;;;5038266;28;20142;-71
2023/10/24 09:44:56;;;;;;;18.92;9.90;;;;;;;;;;5044111;28;20080;-70
2023/10/24 09:47:24;;;;;;;23.48;10.20;;;;;;;;;;5039312;28;20045;-70
2023/10/24 09:49:51;;;;;;;17.92;10.55;;;;;;;;;;5045001;28;20052;-71
2023/10/24 09:52:19;;;;;;;22.83;10.02;;;;;;;;;;5032046;28;20432;-71
2023/10/24 09:54:51;;;;;;;20.95;10.15;;;;;;;;;;5040695;28;20057;-71
2023/10/24 09:57:20;;;;;;;16.80;9.07;;;;;;;;;;5041341;28;20045;-70
2023/10/24 09:59:51;;;;;;;18.10;9.80;;;;;;;;;;5039846;28;20084;-71
2023/10/24 10:02:21;;;;;;;18.35;10.00;;;;;;;;;;5044685;28;20532;-70
2023/10/24 10:04:49;;;;;;;21.75;9.23;;;;;;;;;;5026183;28;20065;-70
2023/10/24 10:07:17;;;;;;;14.38;8.98;;;;;;;;;;5048592;28;20049;-73
2023/10/24 10:09:47;;;;;;;23.02;10.00;;;;;;;;;;5052040;28;20055;-70
2023/10/24 10:12:17;;;;;;;16.35;9.63;;;;;;;;;;5035841;28;20053;-71
2023/10/24 10:14:47;;;;;;;21.23;9.35;;;;;;;;;;5041463;28;20119;-72
2023/10/24 10:17:19;;;;;;;17.63;8.98;;;;;;;;;;5027417;28;20156;-72
2023/10/24 10:19:56;;;;;;;19.08;9.73;;;;;;;;;;5032961;28;20049;-71
2023/10/24 10:22:37;;;;;;;16.48;10.48;;;;;;;;;;5032283;28;20045;-73
2023/10/24 10:25:04;;;;;;;;;;;;;;;;;;5038950;28;20094;-69
2023/10/24 10:27:39;;;;;;;18.00;9.15;;;;;;;;;;5036263;28;20011;-75
2023/10/24 10:30:32;;;;;;;16.10;9.55;;;;;;;;;;5046418;28;20073;-76
2023/10/24 10:33:20;;;;;;;18.35;10.10;;;;;;;;;;5029406;28;20498;-77
2023/10/24 10:35:47;;;;;;;16.25;8.93;;;;;;;;;;5028649;28;20037;-76
2023/10/24 10:38:34;;;;;;;16.70;8.88;;;;;;;;;;5045650;28;20095;-72
2023/10/24 10:41:22;;;;;;;21.17;9.18;;;;;;;;;;5044019;28;20064;-74
2023/10/24 10:43:53;;;;;;;14.05;8.73;;;;;;;;;;5044883;28;20073;-69
2023/10/24 10:46:23;;;;;;;15.38;8.85;;;;;;;;;;5034754;28;20049;-73
2023/10/24 10:48:50;;;;;;;20.15;9.40;;;;;;;;;;5034871;28;20418;-69
2023/10/24 10:51:22;;;;;;;16.63;9.75;;;;;;;;;;5036758;28;20053;-69
2023/10/24 10:53:54;;;;;;;12.38;7.55;;;;;;;;;;5030396;28;20125;-69
2023/10/24 10:56:21;;;;;;;15.60;9.02;;;;;;;;;;5029583;28;20088;-68
2023/10/24 10:58:50;;;;;;;13.65;8.32;;;;;;;;;;5032226;28;20601;-70
2023/10/24 11:01:26;;;;;;;19.00;9.27;;;;;;;;;;5031512;28;20125;-68
2023/10/24 11:03:56;;;;;;;13.63;8.40;;;;;;;;;;5034495;28;20296;-71
2023/10/24 11:06:25;;;;;;;11.75;7.97;;;;;;;;;;5030337;28;20052;-72
2023/10/24 11:09:12;;;;;;;13.45;8.13;;;;;;;;;;5038300;28;20053;-66
2023/10/24 11:11:39;;;;;;;16.67;8.75;;;;;;;;;;5034634;28;20466;-71
2023/10/24 11:14:13;;;;;;;24.33;8.70;;;;;;;;;;5028513;28;20056;-70
2023/10/24 11:16:41;;;;;;;14.52;7.60;;;;;;;;;;5042189;28;20045;-67
2023/10/24 11:19:20;;;;;;;43.05;21.90;;;;;;;;;;5035289;28;20529;-68
2023/10/24 11:21:50;;;;;;;15.00;9.32;;;;;;;;;;5044788;28;20690;-67
2023/10/24 11:24:20;;;;;;;16.05;9.20;;;;;;;;;;5039139;28;20037;-67
2023/10/24 11:26:47;;;;;;;18.83;8.63;;;;;;;;;;5042380;28;20060;-68
2023/10/24 11:29:14;;;;;;;16.27;8.02;;;;;;;;;;5047468;28;20115;-69
2023/10/24 11:31:47;;;;;;;13.55;7.95;;;;;;;;;;5035789;28;20444;-73
2023/10/24 11:34:18;;;;;;;14.38;8.18;;;;;;;;;;5044538;28;20129;-81
2023/10/24 11:36:46;;;;;;;12.55;6.90;;;;;;;;;;5045167;28;20052;-81
2023/10/24 11:39:15;;;;;;;16.52;9.00;;;;;;;;;;5045421;28;20041;-79
2023/10/24 11:41:44;;;;;;;16.83;9.02;;;;;;;;;;5037216;28;20045;-76
2023/10/24 11:44:15;;;;;;;13.45;8.07;;;;;;;;;;5039097;28;20383;-76
2023/10/24 11:46:42;;;;;;;17.77;8.48;;;;;;;;;;5035920;28;20045;-71
2023/10/24 11:49:09;;;;;;;15.68;8.07;;;;;;;;;;5058670;28;20134;-72
2023/10/24 11:51:38;;;;;;;14.43;8.65;;;;;;;;;;5041763;28;20044;-72
2023/10/24 11:54:05;;;;;;;16.15;9.23;;;;;;;;;;5029141;28;20120;-73
2023/10/24 11:56:32;;;;;;;21.23;9.60;;;;;;;;;;5034389;28;20085;-76
2023/10/24 11:59:00;;;;;;;36.25;11.20;;;;;;;;;;5038189;28;20085;-71
2023/10/24 12:01:33;;;;;;;14.85;8.90;;;;;;;;;;5044065;28;20477;-75
2023/10/24 12:04:00;;;;;;;17.90;9.68;;;;;;;;;;5043971;28;20523;-74
2023/10/24 12:06:28;;;;;;;17.92;8.90;;;;;;;;;;5041292;28;20045;-75
2023/10/24 12:08:54;;;;;;;14.23;8.90;;;;;;;;;;5037886;28;20054;-73
2023/10/24 12:11:24;;;;;;;15.40;9.00;;;;;;;;;;5039759;28;20080;-72
2023/10/24 12:13:50;;;;;;;20.63;9.25;;;;;;;;;;5030582;28;20050;-74
2023/10/24 12:16:17;;;;;;;19.38;9.70;;;;;;;;;;5060170;28;20052;-71
2023/10/24 12:18:43;;;;;;;21.38;9.82;;;;;;;;;;5049167;28;20087;-75
2023/10/24 12:21:11;;;;;;;22.73;9.82;;;;;;;;;;5035840;28;20375;-72
2023/10/24 12:23:38;;;;;;;22.73;9.93;;;;;;;;;;5045024;28;20045;-73
2023/10/24 12:26:05;;;;;;;19.77;10.48;;;;;;;;;;5033776;28;20045;-75
2023/10/24 12:28:36;;;;;;;17.60;9.95;;;;;;;;;;5027947;28;20349;-72
2023/10/24 12:31:03;;;;;;;20.17;10.65;;;;;;;;;;5030754;28;20041;-71
2023/10/24 12:33:31;;;;;;;19.75;10.88;;;;;;;;;;5046640;28;20119;-74
2023/10/24 12:35:59;;;;;;;28.63;10.55;;;;;;;;;;5034649;28;20051;-75
2023/10/24 12:38:27;;;;;;;39.63;15.73;;;;;;;;;;5042687;28;20072;-71
2023/10/24 12:40:54;;;;;;;15.73;10.15;;;;;;;;;;5033404;28;20049;-76
2023/10/24 12:43:20;;;;;;;24.40;10.27;;;;;;;;;;5027788;28;20560;-77
2023/10/24 12:45:47;;;;;;;19.15;10.15;;;;;;;;;;5034289;28;20079;-76
2023/10/24 12:48:14;;;;;;;20.25;10.00;;;;;;;;;;5034982;28;20042;-77
2023/10/24 12:50:45;;;;;;;17.48;10.07;;;;;;;;;;5055913;28;20053;-75
2023/10/24 12:53:12;;;;;;;19.13;10.50;;;;;;;;;;5044700;28;20116;-75
2023/10/24 12:55:39;;;;;;;21.63;11.15;;;;;;;;;;5039177;28;20156;-73
2023/10/24 12:58:06;;;;;;;25.98;9.57;;;;;;;;;;5039373;28;20052;-72
2023/10/24 13:00:32;;;;;;;18.52;10.02;;;;;;;;;;5030138;28;20424;-71
2023/10/24 13:02:59;;;;;;;16.95;9.30;;;;;;;;;;5033090;28;20128;-74
2023/10/24 13:05:41;;;;;;;15.48;9.52;;;;;;;;;;5041589;28;20103;-74
2023/10/24 13:08:09;;;;;;;17.75;9.85;;;;;;;;;;5036052;28;20097;-70
2023/10/24 13:10:36;;;;;;;19.40;10.60;;;;;;;;;;5034439;28;20055;-75
2023/10/24 13:13:05;;;;;;;22.33;11.52;;;;;;;;;;5027924;28;20044;-77
2023/10/24 13:15:38;;;;;;;16.23;9.80;;;;;;;;;;5028893;28;20443;-76
2023/10/24 13:18:10;;;;;;;22.00;10.90;;;;;;;;;;5027138;28;20107;-77
2023/10/24 13:20:38;;;;;;;22.02;11.57;;;;;;;;;;5032975;28;20080;-74
2023/10/24 13:23:08;;;;;;;20.60;10.18;;;;;;;;;;5025215;28;20285;-71
2023/10/24 13:25:35;;;;;;;14.60;10.27;;;;;;;;;;5038064;28;20045;-73
2023/10/24 13:28:08;;;;;;;17.58;10.70;;;;;;;;;;5039849;28;20397;-73
2023/10/24 13:31:05;;;;;;;16.00;9.85;;;;;;;;;;5043748;28;20051;-75
2023/10/24 13:33:44;;;;;;;16.10;9.77;;;;;;;;;;5042357;28;20048;-73
2023/10/24 13:36:32;;;;;;;19.05;10.52;;;;;;;;;;5028280;28;20053;-74
2023/10/24 13:39:00;;;;;;;17.30;9.60;;;;;;;;;;5028773;28;20041;-71
2023/10/24 13:41:27;;;;;;;17.08;11.38;;;;;;;;;;5028744;28;20312;-73
2023/10/24 13:43:59;;;;;;;16.85;10.23;;;;;;;;;;5030023;28;20129;-72
2023/10/24 13:46:37;;;;;;;16.17;10.85;;;;;;;;;;5044448;28;20063;-72
2023/10/24 13:49:23;;;;;;;16.42;9.93;;;;;;;;;;5028038;28;20295;-75
2023/10/24 13:52:09;;;;;;;28.30;11.65;;;;;;;;;;5040301;28;20466;-71
2023/10/24 13:54:49;;;;;;;20.10;10.30;;;;;;;;;;5038892;28;20127;-71
2023/10/24 13:57:24;;;;;;;19.40;10.07;;;;;;;;;;5036487;28;20111;-72
2023/10/24 13:59:57;;;;;;;18.67;10.52;;;;;;;;;;5028490;28;20130;-72
2023/10/24 14:02:34;;;;;;;16.58;10.75;;;;;;;;;;5043220;28;20469;-74
2023/10/24 14:05:15;;;;;;;22.55;10.50;;;;;;;;;;5047382;28;20049;-74
2023/10/24 14:07:56;;;;;;;16.08;11.65;;;;;;;;;;5038797;28;20402;-74
2023/10/24 14:10:37;;;;;;;16.80;11.20;;;;;;;;;;5032028;28;20045;-72
2023/10/24 14:13:21;;;;;;;13.02;10.00;;;;;;;;;;5043117;28;20128;-73
2023/10/24 14:16:02;;;;;;;18.48;11.77;;;;;;;;;;5034619;28;20041;-74
2023/10/24 14:18:36;;;;;;;23.55;12.50;;;;;;;;;;5031956;28;20073;-73
2023/10/24 14:21:05;;;;;;;19.50;12.00;;;;;;;;;;5032004;28;20049;-73
2023/10/24 14:23:36;;;;;;;22.58;11.50;;;;;;;;;;5031785;28;20498;-73
2023/10/24 14:26:06;;;;;;;27.05;13.43;;;;;;;;;;5032809;28;20053;-74
2023/10/24 14:28:38;;;;;;;25.25;13.68;;;;;;;;;;5031566;28;20414;-74